createdAt,value
2024-05-09T00:00:56.688Z,13.32
2024-05-09T00:01:56.575Z,13.32
2024-05-09T00:02:56.563Z,13.29
2024-05-09T00:03:56.553Z,13.29
2024-05-09T00:04:56.568Z,13.31
2024-05-09T00:05:56.522Z,13.32
2024-05-09T00:06:56.491Z,13.32
2024-05-09T00:07:56.533Z,13.31
2024-05-09T00:08:56.482Z,13.29
2024-05-09T00:09:56.478Z,13.29
2024-05-09T00:10:56.490Z,13.28
2024-05-09T00:11:56.543Z,13.28
2024-05-09T00:12:56.427Z,13.27
2024-05-09T00:13:56.471Z,13.24
2024-05-09T00:14:56.408Z,13.24
2024-05-09T00:15:56.395Z,13.24
2024-05-09T00:16:56.428Z,13.21
2024-05-09T00:17:56.635Z,13.21
2024-05-09T00:18:56.465Z,13.21
2024-05-09T00:19:56.394Z,13.21
2024-05-09T00:20:56.381Z,13.21
2024-05-09T00:21:56.318Z,13.21
2024-05-09T00:22:56.381Z,13.22
2024-05-09T00:23:56.330Z,13.22
2024-05-09T00:24:56.297Z,13.22
2024-05-09T00:25:56.329Z,13.24
2024-05-09T00:26:56.285Z,13.24
2024-05-09T00:27:56.293Z,13.24
2024-05-09T00:28:56.275Z,13.25
2024-05-09T00:29:56.315Z,13.24
2024-05-09T00:30:56.239Z,13.24
2024-05-09T00:31:56.388Z,13.22
2024-05-09T00:32:56.760Z,13.24
2024-05-09T00:33:56.388Z,13.21
2024-05-09T00:34:56.213Z,13.19
2024-05-09T00:35:56.203Z,13.21
2024-05-09T00:36:56.202Z,13.19
2024-05-09T00:37:56.233Z,13.21
2024-05-09T00:38:56.150Z,13.17
2024-05-09T00:39:56.140Z,13.16
2024-05-09T00:40:56.135Z,13.14
2024-05-09T00:41:56.138Z,13.13
2024-05-09T00:42:56.106Z,13.09
2024-05-09T00:43:56.209Z,13.06
2024-05-09T00:44:56.076Z,13.03
2024-05-09T00:45:56.104Z,13.03
2024-05-09T00:46:56.094Z,12.99
2024-05-09T00:47:56.134Z,12.98
2024-05-09T00:48:56.108Z,12.99
2024-05-09T00:49:56.073Z,12.96
2024-05-09T00:50:56.039Z,12.95
2024-05-09T00:51:56.045Z,12.92
2024-05-09T00:52:56.022Z,12.89
2024-05-09T00:53:55.997Z,12.87
2024-05-09T00:54:55.987Z,12.85
2024-05-09T00:55:56.001Z,12.84
2024-05-09T00:56:55.960Z,12.76
2024-05-09T00:57:55.953Z,12.77
2024-05-09T00:58:55.944Z,12.79
2024-05-09T00:59:55.926Z,12.74
2024-05-09T01:00:55.976Z,12.76
2024-05-09T01:01:55.995Z,12.74
2024-05-09T01:02:55.969Z,12.74
2024-05-09T01:03:56.074Z,12.73
2024-05-09T01:04:55.995Z,12.71
2024-05-09T01:05:55.995Z,12.71
2024-05-09T01:06:55.837Z,12.69
2024-05-09T01:07:55.864Z,12.66
2024-05-09T01:08:55.828Z,12.63
2024-05-09T01:09:55.828Z,12.62
2024-05-09T01:10:55.942Z,12.61
2024-05-09T01:11:55.856Z,12.56
2024-05-09T01:12:55.774Z,12.56
2024-05-09T01:13:55.855Z,12.59
2024-05-09T01:14:55.807Z,12.56
2024-05-09T01:15:55.770Z,12.56
2024-05-09T01:16:55.774Z,12.56
2024-05-09T01:17:56.290Z,12.55
2024-05-09T01:18:55.785Z,12.56
2024-05-09T01:19:55.782Z,12.54
2024-05-09T01:20:55.798Z,12.54
2024-05-09T01:21:55.691Z,12.52
2024-05-09T01:22:55.719Z,12.52
2024-05-09T01:23:55.724Z,12.51
2024-05-09T01:24:55.649Z,12.51
2024-05-09T01:25:55.725Z,12.51
2024-05-09T01:26:55.657Z,12.51
2024-05-09T01:27:55.639Z,12.54
2024-05-09T01:28:55.664Z,12.52
2024-05-09T01:29:55.619Z,12.54
2024-05-09T01:30:55.579Z,12.55
2024-05-09T01:31:55.637Z,12.55
2024-05-09T01:32:55.677Z,12.54
2024-05-09T01:33:55.689Z,12.55
2024-05-09T01:34:55.576Z,12.54
2024-05-09T01:35:55.555Z,12.54
2024-05-09T01:36:55.524Z,12.54
2024-05-09T01:37:55.580Z,12.54
2024-05-09T01:38:55.521Z,12.55
2024-05-09T01:39:55.495Z,12.58
2024-05-09T01:40:55.539Z,12.55
2024-05-09T01:41:55.519Z,12.52
2024-05-09T01:42:55.477Z,12.55
2024-05-09T01:43:55.488Z,12.52
2024-05-09T01:44:55.439Z,12.51
2024-05-09T01:45:55.440Z,12.52
2024-05-09T01:46:55.511Z,12.49
2024-05-09T01:47:55.586Z,12.46
2024-05-09T01:48:55.496Z,12.46
2024-05-09T01:49:55.428Z,12.43
2024-05-09T01:50:55.387Z,12.41
2024-05-09T01:51:55.386Z,12.41
2024-05-09T01:52:55.504Z,12.38
2024-05-09T01:53:55.340Z,12.38
2024-05-09T01:54:55.344Z,12.37
2024-05-09T01:55:55.395Z,12.38
2024-05-09T01:56:55.512Z,12.37
2024-05-09T01:57:55.302Z,12.36
2024-05-09T01:58:55.362Z,12.36
2024-05-09T01:59:55.287Z,12.33
2024-05-09T02:00:55.308Z,12.31
2024-05-09T02:01:57.609Z,12.30
2024-05-09T02:02:55.342Z,12.29
2024-05-09T02:03:55.489Z,12.29
2024-05-09T02:04:55.331Z,12.30
2024-05-09T02:05:55.340Z,12.30
2024-05-09T02:06:55.218Z,12.30
2024-05-09T02:07:55.257Z,12.30
2024-05-09T02:08:55.188Z,12.31
2024-05-09T02:09:55.210Z,12.31
2024-05-09T02:10:55.307Z,12.29
2024-05-09T02:11:55.248Z,12.26
2024-05-09T02:12:55.170Z,12.26
2024-05-09T02:13:55.191Z,12.26
2024-05-09T02:14:55.181Z,12.23
2024-05-09T02:15:55.115Z,12.25
2024-05-09T02:16:55.118Z,12.25
2024-05-09T02:17:55.428Z,12.25
2024-05-09T02:18:55.186Z,12.23
2024-05-09T02:19:55.128Z,12.22
2024-05-09T02:20:55.133Z,12.19
2024-05-09T02:21:55.065Z,12.16
2024-05-09T02:22:55.076Z,12.16
2024-05-09T02:23:55.052Z,12.13
2024-05-09T02:24:55.029Z,12.12
2024-05-09T02:25:55.096Z,12.11
2024-05-09T02:26:54.993Z,12.05
2024-05-09T02:27:54.994Z,12.04
2024-05-09T02:28:55.065Z,12.04
2024-05-09T02:29:54.970Z,12.03
2024-05-09T02:30:54.975Z,12.03
2024-05-09T02:31:55.073Z,12.04
2024-05-09T02:32:55.039Z,12.03
2024-05-09T02:33:55.102Z,12.01
2024-05-09T02:34:55.040Z,11.98
2024-05-09T02:35:54.908Z,11.97
2024-05-09T02:36:54.910Z,11.93
2024-05-09T02:37:54.943Z,11.90
2024-05-09T02:38:54.897Z,11.88
2024-05-09T02:39:54.869Z,11.87
2024-05-09T02:40:54.909Z,11.85
2024-05-09T02:41:54.836Z,11.82
2024-05-09T02:42:54.834Z,11.81
2024-05-09T02:43:54.883Z,11.79
2024-05-09T02:44:54.795Z,11.79
2024-05-09T02:45:54.802Z,11.79
2024-05-09T02:46:54.833Z,11.78
2024-05-09T02:47:55.113Z,11.78
2024-05-09T02:48:54.900Z,11.75
2024-05-09T02:49:54.752Z,11.74
2024-05-09T02:50:54.759Z,11.75
2024-05-09T02:51:54.745Z,11.72
2024-05-09T02:52:54.775Z,11.72
2024-05-09T02:53:54.710Z,11.74
2024-05-09T02:54:54.649Z,11.72
2024-05-09T02:55:54.735Z,11.70
2024-05-09T02:56:54.704Z,11.69
2024-05-09T02:57:54.683Z,11.69
2024-05-09T02:58:54.683Z,11.66
2024-05-09T02:59:54.652Z,11.64
2024-05-09T03:00:54.799Z,11.62
2024-05-09T03:01:54.712Z,11.60
2024-05-09T03:02:54.788Z,11.59
2024-05-09T03:03:54.759Z,11.57
2024-05-09T03:04:54.631Z,11.56
2024-05-09T03:05:54.559Z,11.57
2024-05-09T03:06:54.527Z,11.54
2024-05-09T03:07:54.542Z,11.54
2024-05-09T03:08:54.499Z,11.54
2024-05-09T03:09:54.482Z,11.57
2024-05-09T03:10:54.538Z,11.53
2024-05-09T03:11:54.578Z,11.53
2024-05-09T03:12:54.456Z,11.54
2024-05-09T03:13:54.490Z,11.51
2024-05-09T03:14:54.428Z,11.53
2024-05-09T03:15:54.502Z,11.53
2024-05-09T03:16:54.436Z,11.51
2024-05-09T03:17:54.574Z,11.49
2024-05-09T03:18:54.706Z,11.48
2024-05-09T03:19:54.425Z,11.49
2024-05-09T03:20:54.483Z,11.48
2024-05-09T03:21:54.353Z,11.49
2024-05-09T03:22:56.750Z,11.45
2024-05-09T03:23:54.374Z,11.46
2024-05-09T03:24:54.338Z,11.41
2024-05-09T03:25:54.435Z,11.42
2024-05-09T03:26:54.297Z,11.44
2024-05-09T03:27:54.286Z,11.41
2024-05-09T03:28:54.297Z,11.39
2024-05-09T03:29:54.280Z,11.39
2024-05-09T03:30:54.279Z,11.41
2024-05-09T03:31:54.334Z,11.44
2024-05-09T03:32:54.314Z,11.42
2024-05-09T03:33:54.336Z,11.42
2024-05-09T03:34:54.235Z,11.44
2024-05-09T03:35:54.210Z,11.44
2024-05-09T03:36:54.208Z,11.42
2024-05-09T03:37:54.188Z,11.41
2024-05-09T03:38:54.188Z,11.39
2024-05-09T03:39:54.163Z,11.39
2024-05-09T03:40:54.206Z,11.36
2024-05-09T03:41:54.144Z,11.38
2024-05-09T03:42:54.141Z,11.36
2024-05-09T03:43:54.174Z,11.36
2024-05-09T03:44:54.108Z,11.35
2024-05-09T03:45:54.092Z,11.31
2024-05-09T03:46:54.117Z,11.30
2024-05-09T03:47:54.321Z,11.27
2024-05-09T03:48:54.154Z,11.31
2024-05-09T03:49:54.171Z,11.30
2024-05-09T03:50:54.081Z,11.27
2024-05-09T03:51:54.028Z,11.26
2024-05-09T03:52:54.100Z,11.26
2024-05-09T03:53:54.025Z,11.24
2024-05-09T03:54:53.988Z,11.26
2024-05-09T03:55:54.036Z,11.26
2024-05-09T03:56:53.987Z,11.24
2024-05-09T03:57:53.975Z,11.23
2024-05-09T03:58:53.995Z,11.26
2024-05-09T03:59:53.940Z,11.24
2024-05-09T04:00:54.005Z,11.23
2024-05-09T04:01:54.031Z,11.26
2024-05-09T04:02:54.005Z,11.27
2024-05-09T04:03:54.110Z,11.28
2024-05-09T04:04:53.973Z,11.30
2024-05-09T04:05:53.901Z,11.30
2024-05-09T04:06:53.877Z,11.31
2024-05-09T04:07:53.882Z,11.35
2024-05-09T04:08:53.840Z,11.33
2024-05-09T04:09:53.845Z,11.35
2024-05-09T04:10:53.863Z,11.35
2024-05-09T04:11:54.015Z,11.36
2024-05-09T04:12:53.806Z,11.38
2024-05-09T04:13:53.837Z,11.39
2024-05-09T04:14:53.775Z,11.38
2024-05-09T04:15:53.784Z,11.38
2024-05-09T04:16:53.771Z,11.38
2024-05-09T04:17:54.050Z,11.38
2024-05-09T04:18:53.887Z,11.41
2024-05-09T04:19:53.744Z,11.41
2024-05-09T04:20:53.785Z,11.41
2024-05-09T04:21:53.713Z,11.39
2024-05-09T04:22:53.710Z,11.39
2024-05-09T04:23:53.697Z,11.38
2024-05-09T04:24:53.677Z,11.41
2024-05-09T04:25:53.721Z,11.39
2024-05-09T04:26:53.650Z,11.39
2024-05-09T04:27:53.686Z,11.41
2024-05-09T04:28:53.658Z,11.41
2024-05-09T04:29:53.658Z,11.42
2024-05-09T04:30:53.609Z,11.44
2024-05-09T04:31:53.769Z,11.45
2024-05-09T04:32:53.686Z,11.46
2024-05-09T04:33:53.795Z,11.48
2024-05-09T04:34:53.607Z,11.48
2024-05-09T04:35:53.566Z,11.48
2024-05-09T04:36:53.552Z,11.49
2024-05-09T04:37:53.562Z,11.48
2024-05-09T04:38:53.540Z,11.49
2024-05-09T04:39:53.523Z,11.46
2024-05-09T04:40:53.571Z,11.46
2024-05-09T04:41:53.494Z,11.44
2024-05-09T04:42:53.485Z,11.44
2024-05-09T04:43:53.545Z,11.46
2024-05-09T04:44:56.436Z,11.46
2024-05-09T04:45:53.457Z,11.46
2024-05-09T04:46:53.460Z,11.46
2024-05-09T04:47:53.727Z,11.49
2024-05-09T04:48:53.609Z,11.49
2024-05-09T04:49:53.424Z,11.53
2024-05-09T04:50:53.501Z,11.51
2024-05-09T04:51:53.384Z,11.51
2024-05-09T04:52:53.414Z,11.51
2024-05-09T04:53:53.425Z,11.49
2024-05-09T04:54:54.742Z,11.51
2024-05-09T04:55:53.382Z,11.51
2024-05-09T04:56:53.336Z,11.54
2024-05-09T04:57:53.335Z,11.57
2024-05-09T04:58:53.388Z,11.59
2024-05-09T04:59:53.306Z,11.62
2024-05-09T05:00:53.357Z,11.62
2024-05-09T05:01:53.413Z,11.64
2024-05-09T05:02:53.491Z,11.64
2024-05-09T05:03:54.902Z,11.67
2024-05-09T05:04:53.369Z,11.67
2024-05-09T05:05:53.240Z,11.67
2024-05-09T05:06:53.241Z,11.72
2024-05-09T05:07:53.286Z,11.75
2024-05-09T05:08:53.235Z,11.78
2024-05-09T05:09:53.186Z,11.78
2024-05-09T05:10:53.331Z,11.82
2024-05-09T05:11:53.291Z,11.84
2024-05-09T05:12:53.178Z,11.85
2024-05-09T05:13:53.197Z,11.87
2024-05-09T05:14:53.147Z,11.90
2024-05-09T05:15:53.426Z,11.90
2024-05-09T05:16:53.154Z,11.93
2024-05-09T05:17:53.223Z,11.96
2024-05-09T05:18:53.263Z,11.94
2024-05-09T05:19:53.166Z,11.96
2024-05-09T05:20:53.152Z,11.97
2024-05-09T05:21:53.060Z,12.00
2024-05-09T05:22:53.082Z,12.01
2024-05-09T05:23:53.052Z,12.01
2024-05-09T05:24:53.026Z,12.05
2024-05-09T05:25:53.898Z,12.07
2024-05-09T05:26:53.019Z,12.07
2024-05-09T05:27:53.019Z,12.12
2024-05-09T05:28:53.085Z,12.13
2024-05-09T05:29:53.015Z,12.16
2024-05-09T05:30:52.983Z,12.18
2024-05-09T05:31:53.157Z,12.21
2024-05-09T05:32:53.039Z,12.21
2024-05-09T05:33:53.055Z,12.22
2024-05-09T05:34:52.989Z,12.23
2024-05-09T05:35:52.918Z,12.23
2024-05-09T05:36:52.908Z,12.26
2024-05-09T05:37:52.923Z,12.30
2024-05-09T05:38:52.944Z,12.31
2024-05-09T05:39:52.893Z,12.34
2024-05-09T05:40:52.954Z,12.36
2024-05-09T05:41:52.845Z,12.36
2024-05-09T05:42:52.859Z,12.38
2024-05-09T05:43:52.884Z,12.40
2024-05-09T05:44:52.829Z,12.38
2024-05-09T05:45:52.806Z,12.37
2024-05-09T05:46:52.820Z,12.36
2024-05-09T05:47:53.110Z,12.36
2024-05-09T05:48:53.425Z,12.29
2024-05-09T05:49:52.797Z,12.26
2024-05-09T05:50:52.777Z,12.23
2024-05-09T05:51:52.773Z,12.19
2024-05-09T05:52:52.774Z,12.16
2024-05-09T05:53:52.738Z,12.13
2024-05-09T05:54:52.725Z,12.13
2024-05-09T05:55:52.728Z,12.12
2024-05-09T05:56:52.695Z,12.13
2024-05-09T05:57:52.727Z,12.15
2024-05-09T05:58:52.738Z,12.18
2024-05-09T05:59:52.651Z,12.23
2024-05-09T06:00:52.688Z,12.26
2024-05-09T06:01:52.680Z,12.31
2024-05-09T06:02:52.836Z,12.37
2024-05-09T06:03:52.735Z,12.38
2024-05-09T06:04:52.739Z,12.43
2024-05-09T06:05:52.656Z,12.48
2024-05-09T06:06:52.598Z,12.48
2024-05-09T06:07:52.641Z,12.49
2024-05-09T06:08:52.727Z,12.49
2024-05-09T06:09:52.549Z,12.51
2024-05-09T06:10:52.645Z,12.48
2024-05-09T06:11:52.608Z,12.44
2024-05-09T06:12:52.529Z,12.43
2024-05-09T06:13:52.534Z,12.41
2024-05-09T06:14:52.507Z,12.41
2024-05-09T06:15:52.476Z,12.41
2024-05-09T06:16:54.109Z,12.38
2024-05-09T06:17:52.549Z,12.43
2024-05-09T06:18:52.630Z,12.44
2024-05-09T06:19:52.707Z,12.46
2024-05-09T06:20:52.528Z,12.51
2024-05-09T06:21:52.443Z,12.54
2024-05-09T06:22:52.436Z,12.58
2024-05-09T06:23:52.401Z,12.59
2024-05-09T06:24:52.384Z,12.63
2024-05-09T06:25:52.388Z,12.67
2024-05-09T06:26:52.394Z,12.70
2024-05-09T06:27:52.346Z,12.73
2024-05-09T06:28:52.389Z,12.73
2024-05-09T06:29:52.327Z,12.74
2024-05-09T06:30:52.358Z,12.77
2024-05-09T06:31:52.493Z,12.80
2024-05-09T06:32:52.497Z,12.85
2024-05-09T06:33:53.336Z,12.87
2024-05-09T06:34:52.351Z,12.91
2024-05-09T06:35:52.315Z,12.95
2024-05-09T06:36:52.378Z,12.99
2024-05-09T06:37:52.252Z,13.01
2024-05-09T06:38:52.273Z,13.04
2024-05-09T06:39:52.245Z,13.07
2024-05-09T06:40:52.273Z,13.12
2024-05-09T06:41:52.238Z,13.14
2024-05-09T06:42:52.192Z,13.19
2024-05-09T06:43:52.285Z,13.19
2024-05-09T06:44:52.219Z,13.24
2024-05-09T06:45:52.167Z,13.27
2024-05-09T06:46:52.236Z,13.29
2024-05-09T06:47:52.350Z,13.35
2024-05-09T06:48:52.499Z,13.36
2024-05-09T06:49:52.210Z,13.41
2024-05-09T06:50:52.283Z,13.44
2024-05-09T06:51:52.131Z,13.46
2024-05-09T06:52:52.141Z,13.50
2024-05-09T06:53:52.091Z,13.53
2024-05-09T06:54:52.078Z,13.54
2024-05-09T06:55:52.121Z,13.63
2024-05-09T06:56:52.039Z,13.68
2024-05-09T06:57:52.024Z,13.73
2024-05-09T06:58:52.160Z,13.79
2024-05-09T06:59:52.010Z,13.84
2024-05-09T07:00:52.134Z,13.88
2024-05-09T07:01:52.029Z,13.93
2024-05-09T07:02:52.050Z,13.99
2024-05-09T07:03:52.065Z,14.05
2024-05-09T07:04:52.105Z,14.09
2024-05-09T07:05:52.012Z,14.16
2024-05-09T07:06:51.925Z,14.17
2024-05-09T07:07:51.958Z,14.17
2024-05-09T07:08:52.629Z,14.20
2024-05-09T07:09:51.896Z,14.26
2024-05-09T07:10:51.963Z,14.27
2024-05-09T07:11:51.976Z,14.35
2024-05-09T07:12:51.881Z,14.44
2024-05-09T07:13:51.871Z,14.56
2024-05-09T07:14:51.906Z,14.67
2024-05-09T07:15:51.854Z,14.87
2024-05-09T07:16:51.928Z,15.12
2024-05-09T07:17:51.986Z,15.41
2024-05-09T07:18:51.957Z,15.86
2024-05-09T07:19:51.849Z,16.41
2024-05-09T07:20:51.811Z,16.98
2024-05-09T07:21:51.787Z,17.47
2024-05-09T07:22:51.843Z,17.99
2024-05-09T07:23:51.793Z,18.38
2024-05-09T07:24:52.058Z,18.78
2024-05-09T07:25:51.840Z,19.12
2024-05-09T07:26:51.746Z,19.17
2024-05-09T07:27:51.728Z,19.32
2024-05-09T07:28:51.823Z,19.61
2024-05-09T07:29:51.686Z,19.95
2024-05-09T07:30:51.684Z,20.25
2024-05-09T07:31:51.772Z,20.42
2024-05-09T07:32:51.800Z,20.73
2024-05-09T07:33:51.704Z,20.94
2024-05-09T07:34:51.692Z,21.16
2024-05-09T07:35:51.744Z,21.40
2024-05-09T07:36:51.627Z,21.63
2024-05-09T07:37:51.716Z,21.75
2024-05-09T07:38:51.617Z,21.64
2024-05-09T07:39:51.580Z,21.33
2024-05-09T07:40:51.638Z,21.16
2024-05-09T07:41:51.562Z,21.31
2024-05-09T07:42:51.666Z,21.58
2024-05-09T07:43:51.591Z,21.91
2024-05-09T07:44:51.551Z,22.15
2024-05-09T07:45:54.380Z,22.21
2024-05-09T07:47:52.503Z,22.35
2024-05-09T07:53:32.358Z,22.48
2024-05-09T07:53:49.502Z,22.27
2024-05-09T07:54:27.047Z,22.08
2024-05-09T07:55:27.208Z,21.90
2024-05-09T07:56:27.392Z,21.51
2024-05-09T07:57:26.960Z,21.09
2024-05-09T07:58:26.907Z,20.76
2024-05-09T07:59:26.975Z,20.51
2024-05-09T08:00:30.891Z,20.30
2024-05-09T08:01:27.238Z,20.25
2024-05-09T08:02:26.974Z,20.22
2024-05-09T08:03:27.018Z,20.20
2024-05-09T08:04:27.007Z,20.15
2024-05-09T08:05:26.948Z,20.10
2024-05-09T08:06:27.169Z,19.95
2024-05-09T08:07:26.846Z,19.87
2024-05-09T08:08:26.859Z,19.76
2024-05-09T08:09:26.898Z,19.67
2024-05-09T08:10:28.982Z,19.53
2024-05-09T08:11:26.823Z,19.34
2024-05-09T08:12:26.845Z,19.20
2024-05-09T08:13:26.788Z,19.09
2024-05-09T08:14:26.770Z,19.02
2024-05-09T08:15:26.813Z,18.93
2024-05-09T08:16:26.861Z,18.84
2024-05-09T08:17:27.090Z,18.78
2024-05-09T08:18:26.885Z,18.72
2024-05-09T08:19:26.860Z,18.64
2024-05-09T08:20:31.222Z,18.54
2024-05-09T08:21:26.747Z,18.46
2024-05-09T08:22:26.675Z,18.39
2024-05-09T08:23:26.663Z,18.35
2024-05-09T08:24:26.776Z,18.28
2024-05-09T08:25:26.784Z,18.20
2024-05-09T08:26:26.631Z,18.04
2024-05-09T08:27:26.729Z,17.87
2024-05-09T08:28:26.643Z,17.73
2024-05-09T08:29:26.596Z,17.54
2024-05-09T08:30:33.407Z,17.45
2024-05-09T08:31:26.736Z,17.36
2024-05-09T08:32:27.751Z,17.32
2024-05-09T08:33:26.678Z,17.28
2024-05-09T08:34:26.686Z,17.28
2024-05-09T08:35:26.615Z,17.28
2024-05-09T08:36:26.688Z,17.30
2024-05-09T08:37:31.046Z,17.25
2024-05-09T08:38:26.492Z,17.22
2024-05-09T08:39:26.556Z,17.22
2024-05-09T08:40:33.746Z,17.25
2024-05-09T08:41:26.484Z,17.28
2024-05-09T08:42:26.562Z,17.30
2024-05-09T08:43:26.530Z,17.30
2024-05-09T08:44:26.436Z,17.27
2024-05-09T08:45:26.596Z,17.28
2024-05-09T08:46:26.530Z,17.27
2024-05-09T08:47:26.560Z,17.25
2024-05-09T08:48:26.628Z,17.27
2024-05-09T08:49:26.500Z,17.28
2024-05-09T08:50:32.529Z,17.27
2024-05-09T08:51:26.366Z,17.27
2024-05-09T08:52:26.368Z,17.25
2024-05-09T08:53:26.343Z,17.28
2024-05-09T08:54:26.358Z,17.30
2024-05-09T08:55:26.341Z,17.32
2024-05-09T08:56:26.312Z,17.30
2024-05-09T08:57:26.355Z,17.28
2024-05-09T08:58:26.364Z,17.28
2024-05-09T08:59:26.318Z,17.25
2024-05-09T09:00:34.214Z,17.22
2024-05-09T09:01:26.327Z,17.20
2024-05-09T09:02:26.464Z,17.18
2024-05-09T09:03:26.289Z,17.17
2024-05-09T09:04:26.316Z,17.14
2024-05-09T09:05:26.509Z,17.14
2024-05-09T09:06:26.228Z,17.10
2024-05-09T09:07:26.268Z,17.09
2024-05-09T09:08:26.197Z,17.09
2024-05-09T09:09:26.236Z,17.06
2024-05-09T09:10:31.903Z,17.10
2024-05-09T09:11:26.188Z,17.10
2024-05-09T09:12:26.165Z,17.10
2024-05-09T09:13:26.154Z,17.12
2024-05-09T09:14:26.149Z,17.14
2024-05-09T09:15:26.110Z,17.14
2024-05-09T09:16:26.285Z,17.14
2024-05-09T09:17:26.243Z,17.14
2024-05-09T09:18:26.268Z,17.15
2024-05-09T09:19:26.224Z,17.18
2024-05-09T09:20:33.373Z,17.18
2024-05-09T09:21:26.056Z,17.20
2024-05-09T09:22:26.054Z,17.20
2024-05-09T09:23:26.063Z,17.18
2024-05-09T09:24:26.022Z,17.15
2024-05-09T09:25:26.005Z,17.12
2024-05-09T09:26:26.004Z,17.14
2024-05-09T09:27:26.002Z,17.14
2024-05-09T09:28:26.008Z,17.15
2024-05-09T09:29:25.967Z,17.15
2024-05-09T09:30:34.832Z,17.17
2024-05-09T09:31:26.072Z,17.18
2024-05-09T09:32:26.107Z,17.18
2024-05-09T09:33:26.042Z,17.17
2024-05-09T09:34:26.017Z,17.14
2024-05-09T09:35:25.927Z,17.10
2024-05-09T09:36:25.897Z,17.09
2024-05-09T09:37:25.905Z,17.06
2024-05-09T09:38:25.878Z,17.06
2024-05-09T09:39:25.927Z,17.06
2024-05-09T09:40:31.929Z,17.06
2024-05-09T09:41:25.873Z,17.07
2024-05-09T09:42:25.859Z,17.07
2024-05-09T09:43:25.863Z,17.06
2024-05-09T09:44:25.835Z,17.06
2024-05-09T09:45:25.836Z,17.06
2024-05-09T09:46:25.946Z,17.05
2024-05-09T09:47:26.151Z,17.05
2024-05-09T09:48:25.819Z,17.05
2024-05-09T09:49:25.851Z,17.07
2024-05-09T09:50:33.295Z,17.09
2024-05-09T09:51:25.753Z,17.14
2024-05-09T09:52:25.831Z,17.14
2024-05-09T09:53:25.721Z,17.18
2024-05-09T09:54:25.713Z,17.18
2024-05-09T09:55:25.742Z,17.21
2024-05-09T09:56:25.739Z,17.21
2024-05-09T09:57:25.675Z,17.22
2024-05-09T09:58:25.882Z,17.20
2024-05-09T09:59:25.667Z,17.20
2024-05-09T10:00:30.621Z,17.15
2024-05-09T10:01:25.771Z,17.15
2024-05-09T10:02:25.778Z,17.14
2024-05-09T10:03:25.778Z,17.14
2024-05-09T10:04:26.052Z,17.10
2024-05-09T10:05:25.964Z,17.10
2024-05-09T10:06:25.590Z,17.10
2024-05-09T10:07:25.567Z,17.14
2024-05-09T10:08:25.568Z,17.18
2024-05-09T10:09:25.588Z,17.25
2024-05-09T10:10:31.673Z,17.32
2024-05-09T10:11:25.569Z,17.38
2024-05-09T10:12:25.598Z,17.42
2024-05-09T10:13:25.623Z,17.46
2024-05-09T10:14:25.536Z,17.49
2024-05-09T10:15:25.498Z,17.47
2024-05-09T10:16:25.637Z,17.49
2024-05-09T10:17:25.571Z,17.47
2024-05-09T10:18:29.110Z,17.47
2024-05-09T10:19:25.659Z,17.45
2024-05-09T10:20:30.723Z,17.43
2024-05-09T10:21:25.434Z,17.42
2024-05-09T10:22:25.482Z,17.45
2024-05-09T10:23:25.429Z,17.45
2024-05-09T10:24:25.431Z,17.46
2024-05-09T10:25:25.478Z,17.46
2024-05-09T10:26:25.400Z,17.46
2024-05-09T10:27:25.375Z,17.46
2024-05-09T10:28:25.385Z,17.46
2024-05-09T10:29:25.347Z,17.46
2024-05-09T10:30:33.802Z,17.45
2024-05-09T10:31:25.426Z,17.45
2024-05-09T10:32:25.440Z,17.46
2024-05-09T10:33:25.434Z,17.46
2024-05-09T10:34:25.664Z,17.46
2024-05-09T10:35:25.289Z,17.49
2024-05-09T10:36:25.347Z,17.51
2024-05-09T10:37:25.462Z,17.53
2024-05-09T10:38:25.303Z,17.54
2024-05-09T10:39:25.268Z,17.55
2024-05-09T10:40:31.014Z,17.57
2024-05-09T10:41:25.250Z,17.58
2024-05-09T10:42:25.222Z,17.58
2024-05-09T10:43:25.218Z,17.60
2024-05-09T10:44:25.219Z,17.58
2024-05-09T10:45:25.192Z,17.57
2024-05-09T10:46:25.248Z,17.57
2024-05-09T10:47:25.305Z,17.54
2024-05-09T10:48:25.250Z,17.55
2024-05-09T10:49:25.187Z,17.57
2024-05-09T10:50:28.740Z,17.57
2024-05-09T10:51:25.254Z,17.62
2024-05-09T10:52:25.167Z,17.66
2024-05-09T10:53:25.093Z,17.73
2024-05-09T10:54:25.522Z,17.79
2024-05-09T10:55:25.169Z,17.83
2024-05-09T10:56:25.084Z,17.84
2024-05-09T10:57:25.117Z,17.84
2024-05-09T10:58:25.095Z,17.83
2024-05-09T10:59:25.064Z,17.80
2024-05-09T11:00:30.681Z,17.77
2024-05-09T11:01:25.575Z,17.74
2024-05-09T11:02:25.226Z,17.79
2024-05-09T11:03:25.070Z,17.81
2024-05-09T11:04:25.075Z,17.86
2024-05-09T11:05:25.086Z,17.92
2024-05-09T11:06:24.975Z,17.99
2024-05-09T11:07:25.089Z,18.07
2024-05-09T11:08:25.000Z,18.19
2024-05-09T11:09:24.936Z,18.21
2024-05-09T11:10:31.597Z,18.26
2024-05-09T11:11:24.987Z,18.28
2024-05-09T11:12:25.085Z,18.31
2024-05-09T11:13:24.979Z,18.31
2024-05-09T11:14:24.900Z,18.29
2024-05-09T11:15:24.919Z,18.26
2024-05-09T11:16:24.905Z,18.26
2024-05-09T11:17:24.943Z,18.23
2024-05-09T11:18:26.187Z,18.21
2024-05-09T11:19:25.023Z,18.23
2024-05-09T11:20:29.568Z,18.23
2024-05-09T11:21:24.873Z,18.23
2024-05-09T11:22:24.861Z,18.25
2024-05-09T11:23:24.790Z,18.23
2024-05-09T11:24:24.795Z,18.23
2024-05-09T11:25:24.779Z,18.19
2024-05-09T11:26:24.756Z,18.17
2024-05-09T11:27:24.785Z,18.14
2024-05-09T11:28:24.758Z,18.13
2024-05-09T11:29:24.737Z,18.11
2024-05-09T11:30:30.071Z,18.10
2024-05-09T11:31:24.966Z,18.09
2024-05-09T11:32:24.842Z,18.09
2024-05-09T11:33:24.745Z,18.05
2024-05-09T11:34:24.746Z,18.05
2024-05-09T11:35:24.663Z,18.05
2024-05-09T11:36:24.670Z,18.05
2024-05-09T11:37:24.694Z,18.04
2024-05-09T11:38:24.657Z,18.05
2024-05-09T11:39:24.649Z,18.09
2024-05-09T11:40:28.176Z,18.11
2024-05-09T11:41:24.607Z,18.17
2024-05-09T11:42:24.595Z,18.21
2024-05-09T11:43:24.700Z,18.25
2024-05-09T11:44:24.575Z,18.28
2024-05-09T11:45:24.572Z,18.32
2024-05-09T11:46:24.608Z,18.35
2024-05-09T11:47:24.624Z,18.41
2024-05-09T11:48:24.717Z,18.46
2024-05-09T11:49:26.778Z,18.49
2024-05-09T11:50:29.948Z,18.51
2024-05-09T11:51:24.498Z,18.57
2024-05-09T11:52:24.522Z,18.60
2024-05-09T11:53:24.474Z,18.64
2024-05-09T11:54:24.479Z,18.65
2024-05-09T11:55:27.738Z,18.66
2024-05-09T11:56:24.459Z,18.68
2024-05-09T11:57:24.472Z,18.72
2024-05-09T11:58:24.482Z,18.74
2024-05-09T11:59:24.412Z,18.79
2024-05-09T12:00:33.921Z,18.87
2024-05-09T12:01:27.448Z,18.97
2024-05-09T12:02:24.562Z,19.07
2024-05-09T12:03:24.483Z,19.15
2024-05-09T12:04:24.608Z,19.25
2024-05-09T12:05:24.561Z,19.43
2024-05-09T12:06:24.357Z,19.67
2024-05-09T12:07:24.364Z,19.90
2024-05-09T12:08:24.324Z,20.07
2024-05-09T12:09:24.323Z,20.22
2024-05-09T12:10:32.531Z,20.30
2024-05-09T12:11:24.350Z,20.33
2024-05-09T12:12:24.288Z,20.40
2024-05-09T12:13:24.424Z,20.46
2024-05-09T12:14:24.256Z,20.53
2024-05-09T12:15:24.275Z,20.58
2024-05-09T12:16:24.748Z,20.63
2024-05-09T12:17:24.316Z,20.64
2024-05-09T12:18:24.264Z,20.64
2024-05-09T12:19:24.219Z,20.68
2024-05-09T12:20:32.362Z,20.64
2024-05-09T12:21:24.186Z,20.58
2024-05-09T12:22:24.217Z,20.42
2024-05-09T12:23:24.174Z,20.33
2024-05-09T12:24:24.176Z,20.23
2024-05-09T12:25:24.219Z,20.15
2024-05-09T12:26:24.143Z,20.12
2024-05-09T12:27:24.118Z,20.07
2024-05-09T12:28:24.382Z,20.04
2024-05-09T12:29:24.129Z,20.04
2024-05-09T12:30:33.107Z,20.02
2024-05-09T12:31:24.139Z,20.04
2024-05-09T12:32:24.165Z,20.04
2024-05-09T12:33:24.216Z,20.01
2024-05-09T12:34:24.138Z,19.98
2024-05-09T12:35:24.121Z,19.94
2024-05-09T12:36:24.036Z,19.94
2024-05-09T12:37:24.095Z,19.90
2024-05-09T12:38:24.071Z,19.89
2024-05-09T12:39:24.089Z,19.87
2024-05-09T12:40:34.059Z,19.89
2024-05-09T12:41:24.004Z,19.86
2024-05-09T12:42:27.425Z,19.83
2024-05-09T12:43:24.141Z,19.86
2024-05-09T12:44:24.059Z,19.87
2024-05-09T12:45:23.933Z,19.86
2024-05-09T12:46:24.099Z,19.85
2024-05-09T12:47:24.014Z,19.79
2024-05-09T12:48:24.116Z,19.72
2024-05-09T12:49:24.090Z,19.68
2024-05-09T12:50:31.045Z,19.64
2024-05-09T12:51:23.913Z,19.64
2024-05-09T12:52:24.062Z,19.64
2024-05-09T12:53:23.938Z,19.61
2024-05-09T12:54:23.844Z,19.60
2024-05-09T12:55:23.897Z,19.52
2024-05-09T12:56:23.826Z,19.47
2024-05-09T12:57:23.977Z,19.43